sensor_id;sensor_type;location;lat;lon;timestamp;temperature;humidity
9658;DHT22;4867;48.112;11.622;2022-09-01T00:00:00;15.60;99.90
9658;DHT22;4867;48.112;11.622;2022-09-01T00:02:31;15.60;99.90
9658;DHT22;4867;48.112;11.622;2022-09-01T00:04:59;15.60;99.90
9658;DHT22;4867;48.112;11.622;2022-09-01T00:07:27;15.60;99.90
9658;DHT22;4867;48.112;11.622;2022-09-01T00:09:58;15.60;99.90
9658;DHT22;4867;48.112;11.622;2022-09-01T00:12:27;15.60;99.90
9658;DHT22;4867;48.112;11.622;2022-09-01T00:14:54;15.60;99.90
9658;DHT22;4867;48.112;11.622;2022-09-01T00:17:21;15.60;99.90
9658;DHT22;4867;48.112;11.622;2022-09-01T00:19:48;15.60;99.90
9658;DHT22;4867;48.112;11.622;2022-09-01T00:22:15;15.60;99.90
9658;DHT22;4867;48.112;11.622;2022-09-01T00:24:43;15.70;99.90
9658;DHT22;4867;48.112;11.622;2022-09-01T00:27:16;15.50;99.90
9658;DHT22;4867;48.112;11.622;2022-09-01T00:29:43;15.50;99.90
9658;DHT22;4867;48.112;11.622;2022-09-01T00:32:11;15.50;99.90
9658;DHT22;4867;48.112;11.622;2022-09-01T00:34:38;15.60;99.90
9658;DHT22;4867;48.112;11.622;2022-09-01T00:37:06;15.40;99.90
9658;DHT22;4867;48.112;11.622;2022-09-01T00:39:33;15.50;99.90
9658;DHT22;4867;48.112;11.622;2022-09-01T00:42:00;15.50;99.90
9658;DHT22;4867;48.112;11.622;2022-09-01T00:44:28;15.50;99.90
9658;DHT22;4867;48.112;11.622;2022-09-01T00:46:58;15.50;99.90
9658;DHT22;4867;48.112;11.622;2022-09-01T00:49:39;15.50;99.90
9658;DHT22;4867;48.112;11.622;2022-09-01T00:52:22;15.50;99.90
9658;DHT22;4867;48.112;11.622;2022-09-01T00:54:56;15.40;99.90
9658;DHT22;4867;48.112;11.622;2022-09-01T00:57:24;15.40;99.90
9658;DHT22;4867;48.112;11.622;2022-09-01T00:59:59;15.40;99.90
9658;DHT22;4867;48.112;11.622;2022-09-01T01:02:27;15.40;99.90
9658;DHT22;4867;48.112;11.622;2022-09-01T01:04:55;15.40;99.90
9658;DHT22;4867;48.112;11.622;2022-09-01T01:07:26;15.50;99.90
9658;DHT22;4867;48.112;11.622;2022-09-01T01:09:55;15.40;99.90
9658;DHT22;4867;48.112;11.622;2022-09-01T01:12:22;15.40;99.90
9658;DHT22;4867;48.112;11.622;2022-09-01T01:14:49;15.40;99.90
9658;DHT22;4867;48.112;11.622;2022-09-01T01:17:20;15.40;99.90
9658;DHT22;4867;48.112;11.622;2022-09-01T01:19:49;15.30;99.90
9658;DHT22;4867;48.112;11.622;2022-09-01T01:25:20;15.30;99.90
9658;DHT22;4867;48.112;11.622;2022-09-01T01:27:49;15.50;99.90
9658;DHT22;4867;48.112;11.622;2022-09-01T01:30:18;15.30;99.90
9658;DHT22;4867;48.112;11.622;2022-09-01T01:32:47;15.30;99.90
9658;DHT22;4867;48.112;11.622;2022-09-01T01:35:16;15.40;99.90
9658;DHT22;4867;48.112;11.622;2022-09-01T01:37:44;15.30;99.90
9658;DHT22;4867;48.112;11.622;2022-09-01T01:40:18;15.40;99.90
9658;DHT22;4867;48.112;11.622;2022-09-01T01:42:51;15.40;99.90
9658;DHT22;4867;48.112;11.622;2022-09-01T01:45:21;15.30;99.90
9658;DHT22;4867;48.112;11.622;2022-09-01T01:47:50;15.30;99.90
9658;DHT22;4867;48.112;11.622;2022-09-01T01:50:24;15.30;99.90
9658;DHT22;4867;48.112;11.622;2022-09-01T01:52:53;15.30;99.90
9658;DHT22;4867;48.112;11.622;2022-09-01T01:55:26;15.30;99.90
9658;DHT22;4867;48.112;11.622;2022-09-01T01:57:58;15.20;99.90
9658;DHT22;4867;48.112;11.622;2022-09-01T02:00:29;15.20;99.90
9658;DHT22;4867;48.112;11.622;2022-09-01T02:03:01;15.20;99.90
9658;DHT22;4867;48.112;11.622;2022-09-01T02:05:31;15.10;99.90
9658;DHT22;4867;48.112;11.622;2022-09-01T02:08:05;15.20;99.90
9658;DHT22;4867;48.112;11.622;2022-09-01T02:10:45;15.20;99.90
9658;DHT22;4867;48.112;11.622;2022-09-01T02:13:16;15.20;99.90
9658;DHT22;4867;48.112;11.622;2022-09-01T02:15:49;15.20;99.90
9658;DHT22;4867;48.112;11.622;2022-09-01T02:18:19;15.20;99.90
9658;DHT22;4867;48.112;11.622;2022-09-01T02:20:47;15.20;99.90
9658;DHT22;4867;48.112;11.622;2022-09-01T02:23:19;15.20;99.90
9658;DHT22;4867;48.112;11.622;2022-09-01T02:25:51;15.10;99.90
9658;DHT22;4867;48.112;11.622;2022-09-01T02:28:46;15.10;99.90
9658;DHT22;4867;48.112;11.622;2022-09-01T02:31:25;15.10;99.90
9658;DHT22;4867;48.112;11.622;2022-09-01T02:33:56;15.00;99.90
9658;DHT22;4867;48.112;11.622;2022-09-01T02:36:24;15.10;99.90
9658;DHT22;4867;48.112;11.622;2022-09-01T02:38:53;15.00;99.90
9658;DHT22;4867;48.112;11.622;2022-09-01T02:41:22;15.00;99.90
9658;DHT22;4867;48.112;11.622;2022-09-01T02:43:57;15.00;99.90
9658;DHT22;4867;48.112;11.622;2022-09-01T02:46:30;15.00;99.90
9658;DHT22;4867;48.112;11.622;2022-09-01T02:48:58;14.90;99.90
9658;DHT22;4867;48.112;11.622;2022-09-01T02:51:26;14.90;99.90
9658;DHT22;4867;48.112;11.622;2022-09-01T02:53:53;14.90;99.90
9658;DHT22;4867;48.112;11.622;2022-09-01T02:56:23;14.90;99.90
9658;DHT22;4867;48.112;11.622;2022-09-01T02:58:52;14.90;99.90
9658;DHT22;4867;48.112;11.622;2022-09-01T03:01:29;14.70;99.90
9658;DHT22;4867;48.112;11.622;2022-09-01T03:04:03;14.70;99.90
9658;DHT22;4867;48.112;11.622;2022-09-01T03:06:37;14.70;99.90
9658;DHT22;4867;48.112;11.622;2022-09-01T03:09:07;14.70;99.90
9658;DHT22;4867;48.112;11.622;2022-09-01T03:11:43;14.70;99.90
9658;DHT22;4867;48.112;11.622;2022-09-01T03:14:11;14.70;99.90
9658;DHT22;4867;48.112;11.622;2022-09-01T03:16:38;14.60;99.90
9658;DHT22;4867;48.112;11.622;2022-09-01T03:19:07;14.60;99.90
9658;DHT22;4867;48.112;11.622;2022-09-01T03:21:37;14.60;99.90
9658;DHT22;4867;48.112;11.622;2022-09-01T03:24:10;14.50;99.90
9658;DHT22;4867;48.112;11.622;2022-09-01T03:26:41;14.50;99.90
9658;DHT22;4867;48.112;11.622;2022-09-01T03:29:09;14.50;99.90
9658;DHT22;4867;48.112;11.622;2022-09-01T03:31:38;14.50;99.90
9658;DHT22;4867;48.112;11.622;2022-09-01T03:34:06;14.50;99.90
9658;DHT22;4867;48.112;11.622;2022-09-01T03:36:41;14.50;99.90
9658;DHT22;4867;48.112;11.622;2022-09-01T03:39:22;14.50;99.90
9658;DHT22;4867;48.112;11.622;2022-09-01T03:41:49;14.60;99.90
9658;DHT22;4867;48.112;11.622;2022-09-01T03:44:16;14.60;99.90
9658;DHT22;4867;48.112;11.622;2022-09-01T03:46:47;14.60;99.90
9658;DHT22;4867;48.112;11.622;2022-09-01T03:49:16;14.60;99.90
9658;DHT22;4867;48.112;11.622;2022-09-01T03:51:50;14.50;99.90
9658;DHT22;4867;48.112;11.622;2022-09-01T03:54:20;14.50;99.90
9658;DHT22;4867;48.112;11.622;2022-09-01T03:56:56;14.50;99.90
9658;DHT22;4867;48.112;11.622;2022-09-01T03:59:27;14.60;99.90
9658;DHT22;4867;48.112;11.622;2022-09-01T04:01:56;14.50;99.90
9658;DHT22;4867;48.112;11.622;2022-09-01T04:04:23;14.50;99.90
9658;DHT22;4867;48.112;11.622;2022-09-01T04:06:51;14.50;99.90
9658;DHT22;4867;48.112;11.622;2022-09-01T04:09:18;14.50;99.90
9658;DHT22;4867;48.112;11.622;2022-09-01T04:11:49;14.50;99.90
9658;DHT22;4867;48.112;11.622;2022-09-01T04:14:18;14.40;99.90
9658;DHT22;4867;48.112;11.622;2022-09-01T04:16:47;14.50;99.90
9658;DHT22;4867;48.112;11.622;2022-09-01T04:19:36;14.40;99.90
9658;DHT22;4867;48.112;11.622;2022-09-01T04:22:06;14.40;99.90
9658;DHT22;4867;48.112;11.622;2022-09-01T04:24:43;14.40;99.90
9658;DHT22;4867;48.112;11.622;2022-09-01T04:27:14;14.40;99.90
9658;DHT22;4867;48.112;11.622;2022-09-01T04:29:42;14.30;99.90
9658;DHT22;4867;48.112;11.622;2022-09-01T04:32:10;14.40;99.90
9658;DHT22;4867;48.112;11.622;2022-09-01T04:34:48;14.30;99.90
9658;DHT22;4867;48.112;11.622;2022-09-01T04:37:19;14.30;99.90
9658;DHT22;4867;48.112;11.622;2022-09-01T04:39:59;14.30;99.90
9658;DHT22;4867;48.112;11.622;2022-09-01T04:42:29;14.20;99.90
9658;DHT22;4867;48.112;11.622;2022-09-01T04:45:00;14.20;99.90
9658;DHT22;4867;48.112;11.622;2022-09-01T04:47:38;14.30;99.90
9658;DHT22;4867;48.112;11.622;2022-09-01T04:50:11;14.30;99.90
9658;DHT22;4867;48.112;11.622;2022-09-01T04:53:04;14.20;99.90
9658;DHT22;4867;48.112;11.622;2022-09-01T04:55:45;14.30;99.90
9658;DHT22;4867;48.112;11.622;2022-09-01T04:58:18;14.30;99.90
9658;DHT22;4867;48.112;11.622;2022-09-01T05:00:48;14.30;99.90
9658;DHT22;4867;48.112;11.622;2022-09-01T05:03:18;14.40;99.90
9658;DHT22;4867;48.112;11.622;2022-09-01T05:06:14;14.40;99.90
9658;DHT22;4867;48.112;11.622;2022-09-01T05:08:48;14.40;99.90
9658;DHT22;4867;48.112;11.622;2022-09-01T05:11:33;14.50;99.90
9658;DHT22;4867;48.112;11.622;2022-09-01T05:14:07;14.60;99.90
9658;DHT22;4867;48.112;11.622;2022-09-01T05:16:37;14.70;99.90
9658;DHT22;4867;48.112;11.622;2022-09-01T05:19:07;14.60;99.90
9658;DHT22;4867;48.112;11.622;2022-09-01T05:21:42;14.70;99.90
9658;DHT22;4867;48.112;11.622;2022-09-01T05:24:17;14.70;99.90
9658;DHT22;4867;48.112;11.622;2022-09-01T05:26:47;14.70;99.90
9658;DHT22;4867;48.112;11.622;2022-09-01T05:29:17;14.80;99.90
9658;DHT22;4867;48.112;11.622;2022-09-01T05:31:48;14.80;99.90
9658;DHT22;4867;48.112;11.622;2022-09-01T05:34:17;14.80;99.90
9658;DHT22;4867;48.112;11.622;2022-09-01T05:36:55;14.80;99.90
9658;DHT22;4867;48.112;11.622;2022-09-01T05:39:28;14.80;99.90
9658;DHT22;4867;48.112;11.622;2022-09-01T05:41:57;14.80;99.90
9658;DHT22;4867;48.112;11.622;2022-09-01T05:44:27;14.80;99.90
9658;DHT22;4867;48.112;11.622;2022-09-01T05:46:58;14.80;99.90
9658;DHT22;4867;48.112;11.622;2022-09-01T05:49:28;14.90;99.90
9658;DHT22;4867;48.112;11.622;2022-09-01T05:52:02;15.00;99.90
9658;DHT22;4867;48.112;11.622;2022-09-01T05:54:33;15.00;99.90
9658;DHT22;4867;48.112;11.622;2022-09-01T05:57:02;15.10;99.90
9658;DHT22;4867;48.112;11.622;2022-09-01T05:59:51;15.10;99.90
9658;DHT22;4867;48.112;11.622;2022-09-01T06:02:23;15.10;99.90
9658;DHT22;4867;48.112;11.622;2022-09-01T06:04:55;15.20;99.90
9658;DHT22;4867;48.112;11.622;2022-09-01T06:07:29;15.30;99.90
9658;DHT22;4867;48.112;11.622;2022-09-01T06:09:59;15.50;99.90
9658;DHT22;4867;48.112;11.622;2022-09-01T06:12:26;15.60;99.90
9658;DHT22;4867;48.112;11.622;2022-09-01T06:14:56;15.70;99.90
9658;DHT22;4867;48.112;11.622;2022-09-01T06:17:25;15.60;99.90
9658;DHT22;4867;48.112;11.622;2022-09-01T06:19:56;15.70;99.90
9658;DHT22;4867;48.112;11.622;2022-09-01T06:22:26;15.80;99.90
9658;DHT22;4867;48.112;11.622;2022-09-01T06:24:55;15.80;99.90
9658;DHT22;4867;48.112;11.622;2022-09-01T06:27:38;15.80;99.90
9658;DHT22;4867;48.112;11.622;2022-09-01T06:30:12;15.90;99.90
9658;DHT22;4867;48.112;11.622;2022-09-01T06:33:11;15.90;99.90
9658;DHT22;4867;48.112;11.622;2022-09-01T06:35:45;16.10;99.90
9658;DHT22;4867;48.112;11.622;2022-09-01T06:38:15;16.20;99.90
9658;DHT22;4867;48.112;11.622;2022-09-01T06:40:45;16.30;99.90
9658;DHT22;4867;48.112;11.622;2022-09-01T06:43:17;16.20;99.90
9658;DHT22;4867;48.112;11.622;2022-09-01T06:45:47;16.20;99.90
9658;DHT22;4867;48.112;11.622;2022-09-01T06:48:22;16.10;99.90
9658;DHT22;4867;48.112;11.622;2022-09-01T06:51:01;16.20;99.90
9658;DHT22;4867;48.112;11.622;2022-09-01T06:53:50;16.30;99.90
9658;DHT22;4867;48.112;11.622;2022-09-01T06:56:18;16.40;99.90
9658;DHT22;4867;48.112;11.622;2022-09-01T06:58:46;16.40;99.90
9658;DHT22;4867;48.112;11.622;2022-09-01T07:01:16;16.40;99.90
9658;DHT22;4867;48.112;11.622;2022-09-01T07:03:54;16.40;99.90
9658;DHT22;4867;48.112;11.622;2022-09-01T07:06:46;16.50;99.90
9658;DHT22;4867;48.112;11.622;2022-09-01T07:09:46;16.40;99.90
9658;DHT22;4867;48.112;11.622;2022-09-01T07:12:37;16.40;99.90
9658;DHT22;4867;48.112;11.622;2022-09-01T07:15:27;16.50;99.90
9658;DHT22;4867;48.112;11.622;2022-09-01T07:18:18;16.60;99.90
9658;DHT22;4867;48.112;11.622;2022-09-01T07:20:48;16.60;99.90
9658;DHT22;4867;48.112;11.622;2022-09-01T07:23:35;16.60;99.90
9658;DHT22;4867;48.112;11.622;2022-09-01T07:26:25;16.70;99.90
9658;DHT22;4867;48.112;11.622;2022-09-01T07:29:12;16.80;99.90
9658;DHT22;4867;48.112;11.622;2022-09-01T07:31:40;16.80;99.90
9658;DHT22;4867;48.112;11.622;2022-09-01T07:34:29;16.80;99.90
9658;DHT22;4867;48.112;11.622;2022-09-01T07:37:17;16.90;99.90
9658;DHT22;4867;48.112;11.622;2022-09-01T07:40:06;16.90;99.90
9658;DHT22;4867;48.112;11.622;2022-09-01T07:43:22;16.90;99.90
9658;DHT22;4867;48.112;11.622;2022-09-01T07:46:17;17.20;99.90
9658;DHT22;4867;48.112;11.622;2022-09-01T07:49:09;17.40;99.90
9658;DHT22;4867;48.112;11.622;2022-09-01T07:51:56;17.40;99.90
9658;DHT22;4867;48.112;11.622;2022-09-01T07:54:25;17.50;99.90
9658;DHT22;4867;48.112;11.622;2022-09-01T07:56:56;17.70;99.90
9658;DHT22;4867;48.112;11.622;2022-09-01T07:59:27;17.80;99.90
9658;DHT22;4867;48.112;11.622;2022-09-01T08:02:01;17.90;99.90
9658;DHT22;4867;48.112;11.622;2022-09-01T08:04:32;18.00;99.90
9658;DHT22;4867;48.112;11.622;2022-09-01T08:07:00;18.20;99.90
9658;DHT22;4867;48.112;11.622;2022-09-01T08:09:28;18.40;99.90
9658;DHT22;4867;48.112;11.622;2022-09-01T08:12:05;18.50;99.90
9658;DHT22;4867;48.112;11.622;2022-09-01T08:14:38;18.50;99.90
9658;DHT22;4867;48.112;11.622;2022-09-01T08:17:40;18.60;99.90
9658;DHT22;4867;48.112;11.622;2022-09-01T08:20:19;18.80;99.90
9658;DHT22;4867;48.112;11.622;2022-09-01T08:22:58;19.10;99.90
9658;DHT22;4867;48.112;11.622;2022-09-01T08:25:33;19.30;99.90
9658;DHT22;4867;48.112;11.622;2022-09-01T08:28:01;19.40;99.90
9658;DHT22;4867;48.112;11.622;2022-09-01T08:30:29;19.50;99.90
9658;DHT22;4867;48.112;11.622;2022-09-01T08:32:59;19.60;99.90
9658;DHT22;4867;48.112;11.622;2022-09-01T08:35:42;19.60;99.90
9658;DHT22;4867;48.112;11.622;2022-09-01T08:38:11;19.60;99.90
9658;DHT22;4867;48.112;11.622;2022-09-01T08:40:40;19.60;99.90
9658;DHT22;4867;48.112;11.622;2022-09-01T08:45:56;19.80;99.90
9658;DHT22;4867;48.112;11.622;2022-09-01T08:48:26;19.90;99.90
9658;DHT22;4867;48.112;11.622;2022-09-01T08:57:08;20.00;99.90
9658;DHT22;4867;48.112;11.622;2022-09-01T08:59:55;20.00;99.90
9658;DHT22;4867;48.112;11.622;2022-09-01T09:09:00;19.90;99.90
9658;DHT22;4867;48.112;11.622;2022-09-01T09:16:38;20.10;99.90
9658;DHT22;4867;48.112;11.622;2022-09-01T09:21:53;20.30;99.90
9658;DHT22;4867;48.112;11.622;2022-09-01T09:24:28;20.30;99.90
9658;DHT22;4867;48.112;11.622;2022-09-01T09:30:02;20.50;99.90
9658;DHT22;4867;48.112;11.622;2022-09-01T09:32:48;20.40;99.90
9658;DHT22;4867;48.112;11.622;2022-09-01T09:43:47;19.60;99.90
9658;DHT22;4867;48.112;11.622;2022-09-01T09:46:25;19.50;99.90
9658;DHT22;4867;48.112;11.622;2022-09-01T09:54:56;19.20;99.90
9658;DHT22;4867;48.112;11.622;2022-09-01T09:57:24;19.00;99.90
9658;DHT22;4867;48.112;11.622;2022-09-01T10:00:03;18.80;99.90
9658;DHT22;4867;48.112;11.622;2022-09-01T10:02:43;18.60;99.90
9658;DHT22;4867;48.112;11.622;2022-09-01T10:08:12;18.80;99.90
9658;DHT22;4867;48.112;11.622;2022-09-01T10:10:44;19.00;99.90
9658;DHT22;4867;48.112;11.622;2022-09-01T10:13:26;19.30;99.90
9658;DHT22;4867;48.112;11.622;2022-09-01T10:16:17;19.50;99.90
9658;DHT22;4867;48.112;11.622;2022-09-01T10:18:47;19.80;99.90
9658;DHT22;4867;48.112;11.622;2022-09-01T10:21:23;20.00;99.90
9658;DHT22;4867;48.112;11.622;2022-09-01T10:23:52;19.90;99.90
9658;DHT22;4867;48.112;11.622;2022-09-01T10:26:29;19.70;99.90
9658;DHT22;4867;48.112;11.622;2022-09-01T10:29:19;19.70;99.90
9658;DHT22;4867;48.112;11.622;2022-09-01T10:31:47;19.60;99.90
9658;DHT22;4867;48.112;11.622;2022-09-01T10:34:16;19.50;99.90
9658;DHT22;4867;48.112;11.622;2022-09-01T10:36:46;19.60;99.90
9658;DHT22;4867;48.112;11.622;2022-09-01T10:39:22;19.90;99.90
9658;DHT22;4867;48.112;11.622;2022-09-01T10:42:00;20.20;99.90
9658;DHT22;4867;48.112;11.622;2022-09-01T10:44:57;20.20;99.90
9658;DHT22;4867;48.112;11.622;2022-09-01T10:47:34;20.00;99.90
9658;DHT22;4867;48.112;11.622;2022-09-01T10:52:53;19.70;99.90
9658;DHT22;4867;48.112;11.622;2022-09-01T10:55:23;19.60;99.90
9658;DHT22;4867;48.112;11.622;2022-09-01T10:58:24;19.50;99.90
9658;DHT22;4867;48.112;11.622;2022-09-01T11:01:14;19.60;99.90
9658;DHT22;4867;48.112;11.622;2022-09-01T11:04:01;19.80;99.90
9658;DHT22;4867;48.112;11.622;2022-09-01T11:09:41;20.10;99.90
9658;DHT22;4867;48.112;11.622;2022-09-01T11:12:36;20.30;99.90
9658;DHT22;4867;48.112;11.622;2022-09-01T11:20:31;21.00;99.90
9658;DHT22;4867;48.112;11.622;2022-09-01T11:23:21;21.20;99.90
9658;DHT22;4867;48.112;11.622;2022-09-01T11:25:57;21.30;99.90
9658;DHT22;4867;48.112;11.622;2022-09-01T11:28:44;21.30;99.90
9658;DHT22;4867;48.112;11.622;2022-09-01T11:31:25;21.20;99.90
9658;DHT22;4867;48.112;11.622;2022-09-01T11:34:19;20.90;99.90
9658;DHT22;4867;48.112;11.622;2022-09-01T11:36:52;20.70;99.90
9658;DHT22;4867;48.112;11.622;2022-09-01T11:39:44;20.60;99.90
9658;DHT22;4867;48.112;11.622;2022-09-01T11:45:11;20.90;99.90
9658;DHT22;4867;48.112;11.622;2022-09-01T11:47:50;21.00;99.90
9658;DHT22;4867;48.112;11.622;2022-09-01T11:50:22;21.20;99.90
9658;DHT22;4867;48.112;11.622;2022-09-01T11:52:57;21.30;99.90
9658;DHT22;4867;48.112;11.622;2022-09-01T11:55:51;21.20;99.90
9658;DHT22;4867;48.112;11.622;2022-09-01T12:01:12;21.20;99.90
9658;DHT22;4867;48.112;11.622;2022-09-01T12:03:39;21.20;99.90
9658;DHT22;4867;48.112;11.622;2022-09-01T12:06:09;21.30;99.90
9658;DHT22;4867;48.112;11.622;2022-09-01T12:08:40;21.30;99.90
9658;DHT22;4867;48.112;11.622;2022-09-01T12:11:23;21.40;99.90
9658;DHT22;4867;48.112;11.622;2022-09-01T12:14:02;21.60;99.90
9658;DHT22;4867;48.112;11.622;2022-09-01T12:16:36;21.80;99.90
9658;DHT22;4867;48.112;11.622;2022-09-01T12:19:05;22.10;99.90
9658;DHT22;4867;48.112;11.622;2022-09-01T12:21:35;22.40;99.90
9658;DHT22;4867;48.112;11.622;2022-09-01T12:24:18;22.60;99.90
9658;DHT22;4867;48.112;11.622;2022-09-01T12:26:47;22.90;99.90
9658;DHT22;4867;48.112;11.622;2022-09-01T12:29:15;23.00;99.90
9658;DHT22;4867;48.112;11.622;2022-09-01T12:31:45;23.20;99.90
9658;DHT22;4867;48.112;11.622;2022-09-01T12:34:36;23.20;99.90
9658;DHT22;4867;48.112;11.622;2022-09-01T12:37:19;23.00;99.90
9658;DHT22;4867;48.112;11.622;2022-09-01T12:39:55;22.70;99.90
9658;DHT22;4867;48.112;11.622;2022-09-01T12:42:26;22.60;99.90
9658;DHT22;4867;48.112;11.622;2022-09-01T12:44:58;22.70;99.90
9658;DHT22;4867;48.112;11.622;2022-09-01T12:52:34;23.30;99.90
9658;DHT22;4867;48.112;11.622;2022-09-01T13:02:41;23.50;99.90
9658;DHT22;4867;48.112;11.622;2022-09-01T13:05:20;23.60;99.90
9658;DHT22;4867;48.112;11.622;2022-09-01T13:07:56;23.50;99.90
9658;DHT22;4867;48.112;11.622;2022-09-01T13:10:27;23.30;99.90
9658;DHT22;4867;48.112;11.622;2022-09-01T13:12:56;23.00;99.90
9658;DHT22;4867;48.112;11.622;2022-09-01T13:15:24;22.80;99.90
9658;DHT22;4867;48.112;11.622;2022-09-01T13:17:52;22.60;99.90
9658;DHT22;4867;48.112;11.622;2022-09-01T13:20:19;22.50;99.90
9658;DHT22;4867;48.112;11.622;2022-09-01T13:22:46;22.40;99.90
9658;DHT22;4867;48.112;11.622;2022-09-01T13:25:17;22.30;99.90
9658;DHT22;4867;48.112;11.622;2022-09-01T13:27:45;22.30;99.90
9658;DHT22;4867;48.112;11.622;2022-09-01T13:30:18;22.40;99.90
9658;DHT22;4867;48.112;11.622;2022-09-01T13:32:49;22.30;99.90
9658;DHT22;4867;48.112;11.622;2022-09-01T13:35:36;22.20;99.90
9658;DHT22;4867;48.112;11.622;2022-09-01T13:38:02;22.10;99.90
9658;DHT22;4867;48.112;11.622;2022-09-01T13:40:29;22.10;99.90
9658;DHT22;4867;48.112;11.622;2022-09-01T13:42:56;22.20;99.90
9658;DHT22;4867;48.112;11.622;2022-09-01T13:45:24;22.50;99.90
9658;DHT22;4867;48.112;11.622;2022-09-01T13:47:52;22.50;99.90
9658;DHT22;4867;48.112;11.622;2022-09-01T13:50:40;22.60;99.90
9658;DHT22;4867;48.112;11.622;2022-09-01T13:53:27;22.80;99.90
9658;DHT22;4867;48.112;11.622;2022-09-01T13:55:54;22.80;99.90
9658;DHT22;4867;48.112;11.622;2022-09-01T13:58:20;22.70;99.90
9658;DHT22;4867;48.112;11.622;2022-09-01T14:00:47;22.70;99.90
9658;DHT22;4867;48.112;11.622;2022-09-01T14:03:18;22.50;99.90
9658;DHT22;4867;48.112;11.622;2022-09-01T14:05:46;22.30;99.90
9658;DHT22;4867;48.112;11.622;2022-09-01T14:08:17;21.90;99.90
9658;DHT22;4867;48.112;11.622;2022-09-01T14:10:47;21.70;99.90
9658;DHT22;4867;48.112;11.622;2022-09-01T14:13:20;21.50;99.90
9658;DHT22;4867;48.112;11.622;2022-09-01T14:15:48;21.60;99.90
9658;DHT22;4867;48.112;11.622;2022-09-01T14:18:16;21.50;99.90
9658;DHT22;4867;48.112;11.622;2022-09-01T14:20:45;21.60;99.90
9658;DHT22;4867;48.112;11.622;2022-09-01T14:23:14;21.70;99.90
9658;DHT22;4867;48.112;11.622;2022-09-01T14:25:46;21.70;99.90
9658;DHT22;4867;48.112;11.622;2022-09-01T14:28:14;21.80;99.90
9658;DHT22;4867;48.112;11.622;2022-09-01T14:30:46;21.80;99.90
9658;DHT22;4867;48.112;11.622;2022-09-01T14:33:14;21.70;99.90
9658;DHT22;4867;48.112;11.622;2022-09-01T14:35:45;21.60;99.90
9658;DHT22;4867;48.112;11.622;2022-09-01T14:38:13;21.60;99.90
9658;DHT22;4867;48.112;11.622;2022-09-01T14:40:41;21.60;99.90
9658;DHT22;4867;48.112;11.622;2022-09-01T14:43:10;21.60;99.90
9658;DHT22;4867;48.112;11.622;2022-09-01T14:45:41;21.60;99.90
9658;DHT22;4867;48.112;11.622;2022-09-01T14:48:12;21.60;99.90
9658;DHT22;4867;48.112;11.622;2022-09-01T14:50:42;21.40;99.90
9658;DHT22;4867;48.112;11.622;2022-09-01T14:53:10;21.40;99.90
9658;DHT22;4867;48.112;11.622;2022-09-01T14:55:38;21.40;99.90
9658;DHT22;4867;48.112;11.622;2022-09-01T14:58:09;21.60;99.90
9658;DHT22;4867;48.112;11.622;2022-09-01T15:00:36;21.70;99.90
9658;DHT22;4867;48.112;11.622;2022-09-01T15:03:05;21.70;99.90
9658;DHT22;4867;48.112;11.622;2022-09-01T15:05:32;21.70;99.90
9658;DHT22;4867;48.112;11.622;2022-09-01T15:08:06;21.70;99.90
9658;DHT22;4867;48.112;11.622;2022-09-01T15:10:33;21.70;99.90
9658;DHT22;4867;48.112;11.622;2022-09-01T15:13:01;21.70;99.90
9658;DHT22;4867;48.112;11.622;2022-09-01T15:15:29;21.80;99.90
9658;DHT22;4867;48.112;11.622;2022-09-01T15:17:57;21.80;99.90
9658;DHT22;4867;48.112;11.622;2022-09-01T15:20:25;21.70;99.90
9658;DHT22;4867;48.112;11.622;2022-09-01T15:23:22;21.60;99.90
9658;DHT22;4867;48.112;11.622;2022-09-01T15:25:51;21.70;99.90
9658;DHT22;4867;48.112;11.622;2022-09-01T15:28:19;21.80;99.90
9658;DHT22;4867;48.112;11.622;2022-09-01T15:30:46;21.80;99.90
9658;DHT22;4867;48.112;11.622;2022-09-01T15:33:13;21.80;99.90
9658;DHT22;4867;48.112;11.622;2022-09-01T15:35:43;21.80;99.90
9658;DHT22;4867;48.112;11.622;2022-09-01T15:38:11;21.80;99.90
9658;DHT22;4867;48.112;11.622;2022-09-01T15:40:44;21.80;99.90
9658;DHT22;4867;48.112;11.622;2022-09-01T15:43:21;21.70;99.90
9658;DHT22;4867;48.112;11.622;2022-09-01T15:45:48;21.60;99.90
9658;DHT22;4867;48.112;11.622;2022-09-01T15:48:15;21.60;99.90
9658;DHT22;4867;48.112;11.622;2022-09-01T15:50:41;21.50;99.90
9658;DHT22;4867;48.112;11.622;2022-09-01T15:53:08;21.30;99.90
9658;DHT22;4867;48.112;11.622;2022-09-01T15:55:46;21.20;99.90
9658;DHT22;4867;48.112;11.622;2022-09-01T15:58:16;21.20;99.90
9658;DHT22;4867;48.112;11.622;2022-09-01T16:00:44;21.10;99.90
9658;DHT22;4867;48.112;11.622;2022-09-01T16:03:12;21.00;99.90
9658;DHT22;4867;48.112;11.622;2022-09-01T16:05:39;21.00;99.90
9658;DHT22;4867;48.112;11.622;2022-09-01T16:08:08;20.70;99.90
9658;DHT22;4867;48.112;11.622;2022-09-01T16:10:38;20.70;99.90
9658;DHT22;4867;48.112;11.622;2022-09-01T16:13:05;20.60;99.90
9658;DHT22;4867;48.112;11.622;2022-09-01T16:15:33;20.60;99.90
9658;DHT22;4867;48.112;11.622;2022-09-01T16:18:18;20.50;99.90
9658;DHT22;4867;48.112;11.622;2022-09-01T16:21:08;20.60;99.90
9658;DHT22;4867;48.112;11.622;2022-09-01T16:23:42;20.60;99.90
9658;DHT22;4867;48.112;11.622;2022-09-01T16:26:10;20.60;99.90
9658;DHT22;4867;48.112;11.622;2022-09-01T16:28:41;20.60;99.90
9658;DHT22;4867;48.112;11.622;2022-09-01T16:31:11;20.60;99.90
9658;DHT22;4867;48.112;11.622;2022-09-01T16:33:50;20.60;99.90
9658;DHT22;4867;48.112;11.622;2022-09-01T16:36:31;20.60;99.90
9658;DHT22;4867;48.112;11.622;2022-09-01T16:47:05;20.40;99.90
9658;DHT22;4867;48.112;11.622;2022-09-01T16:55:43;20.20;99.90
9658;DHT22;4867;48.112;11.622;2022-09-01T16:58:18;20.10;99.90
9658;DHT22;4867;48.112;11.622;2022-09-01T17:01:06;20.10;99.90
9658;DHT22;4867;48.112;11.622;2022-09-01T17:09:49;20.00;99.90
9658;DHT22;4867;48.112;11.622;2022-09-01T17:15:06;19.90;99.90
9658;DHT22;4867;48.112;11.622;2022-09-01T17:17:41;19.90;99.90
9658;DHT22;4867;48.112;11.622;2022-09-01T17:20:09;20.00;99.90
9658;DHT22;4867;48.112;11.622;2022-09-01T17:22:37;20.10;99.90
9658;DHT22;4867;48.112;11.622;2022-09-01T17:25:09;20.10;99.90
9658;DHT22;4867;48.112;11.622;2022-09-01T17:27:50;20.10;99.90
9658;DHT22;4867;48.112;11.622;2022-09-01T17:30:20;20.00;99.90
9658;DHT22;4867;48.112;11.622;2022-09-01T17:36:11;19.70;99.90
9658;DHT22;4867;48.112;11.622;2022-09-01T17:42:04;19.40;99.90
9658;DHT22;4867;48.112;11.622;2022-09-01T17:44:45;19.30;99.90
9658;DHT22;4867;48.112;11.622;2022-09-01T18:09:14;18.30;99.90
9658;DHT22;4867;48.112;11.622;2022-09-01T18:12:04;18.20;99.90
9658;DHT22;4867;48.112;11.622;2022-09-01T18:14:45;18.10;99.90
9658;DHT22;4867;48.112;11.622;2022-09-01T18:17:25;18.00;99.90
9658;DHT22;4867;48.112;11.622;2022-09-01T18:20:03;18.00;99.90
9658;DHT22;4867;48.112;11.622;2022-09-01T18:23:17;17.90;99.90
9658;DHT22;4867;48.112;11.622;2022-09-01T18:25:39;17.80;99.90
9658;DHT22;4867;48.112;11.622;2022-09-01T18:28:07;17.80;99.90
9658;DHT22;4867;48.112;11.622;2022-09-01T18:38:49;17.50;99.90
9658;DHT22;4867;48.112;11.622;2022-09-01T18:41:24;17.50;99.90